CheckWX is a tool to help pilots better visualize weather data.  It is not intended as a substitute for an official pre-flight weather briefing.

01:50:29 UTC

KCSM TAF
Clinton-Sherman Airport
Burns Flat, Oklahoma, USA
KCSM 030520Z 0306/0406 16008KT P6SM FEW070 SCT250

Jul-3@
06:00 UTC

Jul-3 @ 06:00 UTC

Jul-4@
06:00 UTC

Jul-4 @ 06:00 UTC

TAF KCSM 030520Z 0306/0406 16008KT P6SM FEW070 SCT250
Wind
  • 160° at 8 KTS
Cloud Levels
  • Few at 7,000' AGL
  • Scattered at 25,000' AGL